createdAt,value
2022-11-04T05:01:05.413Z,99656.23
2022-11-04T05:03:51.622Z,99658.15
2022-11-04T05:06:38.195Z,99656.95
2022-11-04T05:09:24.676Z,99660.83
2022-11-04T05:12:11.221Z,99651.14
2022-11-04T05:14:57.657Z,99651.27
2022-11-04T05:17:44.049Z,99651.97
2022-11-04T05:20:33.400Z,99654.09
2022-11-04T05:23:20.959Z,99650.56
2022-11-04T05:26:07.729Z,99649.27
2022-11-04T05:28:54.466Z,99648.35
2022-11-04T05:31:41.045Z,99643.75
2022-11-04T05:34:26.710Z,99639.73
2022-11-04T05:37:12.580Z,99638.45
2022-11-04T05:39:59.524Z,99637.05
2022-11-04T05:42:46.471Z,99638.16
2022-11-04T05:45:32.922Z,99630.94
2022-11-04T05:48:19.636Z,99627.27
2022-11-04T05:51:05.665Z,99621.87
2022-11-04T05:53:52.460Z,99637.48
2022-11-04T05:56:42.165Z,99655.64
2022-11-04T05:59:28.125Z,99645.37
2022-11-04T06:02:15.082Z,99644.65
2022-11-04T06:05:02.009Z,99641.34
2022-11-04T06:07:48.468Z,99639.65
2022-11-04T06:10:35.043Z,99639.67
2022-11-04T06:13:21.722Z,99645.27
2022-11-04T06:16:08.386Z,99645.41
2022-11-04T06:18:54.850Z,99648.61
2022-11-04T06:21:41.466Z,99649.50
2022-11-04T06:24:28.097Z,99643.27
2022-11-04T06:27:14.727Z,99643.77
2022-11-04T06:30:01.293Z,99643.94
2022-11-04T06:32:47.833Z,99637.29
2022-11-04T06:35:34.273Z,99651.56
2022-11-04T06:38:20.738Z,99641.97
2022-11-04T06:41:09.675Z,99631.58
2022-11-04T06:43:55.650Z,99629.17
2022-11-04T06:46:45.008Z,99622.97
2022-11-04T06:49:31.190Z,99627.14
2022-11-04T06:52:17.067Z,99639.96
2022-11-04T06:55:02.844Z,99626.94
2022-11-04T06:57:49.128Z,99623.15
2022-11-04T07:00:35.500Z,99623.55
2022-11-04T07:03:21.782Z,99621.91
2022-11-04T07:06:09.767Z,99623.98
2022-11-04T07:08:59.132Z,99619.70
2022-11-04T07:11:46.005Z,99624.55
2022-11-04T07:14:31.943Z,99627.79
2022-11-04T07:17:22.315Z,99630.58
2022-11-04T07:20:09.533Z,99627.21
2022-11-04T07:22:56.184Z,99629.70
2022-11-04T07:25:42.560Z,99629.33
2022-11-04T07:28:29.193Z,99632.63
2022-11-04T07:31:20.402Z,99634.77
2022-11-04T07:34:06.266Z,99639.05
2022-11-04T07:36:53.167Z,99645.05
2022-11-04T07:39:38.977Z,99637.84
2022-11-04T07:42:25.625Z,99644.46
2022-11-04T07:45:13.817Z,99646.84
2022-11-04T07:47:59.928Z,99651.01
2022-11-04T07:50:45.970Z,99649.20
2022-11-04T07:53:32.670Z,99649.38
2022-11-04T07:56:21.974Z,99646.95
2022-11-04T07:59:09.009Z,99648.19
2022-11-04T08:01:55.841Z,99652.73
2022-11-04T08:04:43.356Z,99645.40
2022-11-04T08:07:30.300Z,99638.27
2022-11-04T08:10:17.121Z,99633.98
2022-11-04T08:13:04.145Z,99642.46
2022-11-04T08:15:51.204Z,99644.55
2022-11-04T08:18:37.966Z,99648.11
2022-11-04T08:21:24.667Z,99641.49
2022-11-04T08:24:11.461Z,99645.87
2022-11-04T08:26:57.866Z,99639.08
2022-11-04T08:29:44.912Z,99637.03
2022-11-04T08:32:31.912Z,99639.16
2022-11-04T08:35:19.017Z,99638.91
2022-11-04T08:38:05.542Z,99641.90
2022-11-04T08:40:57.080Z,99640.52
2022-11-04T08:43:47.255Z,99640.96
2022-11-04T08:46:40.072Z,99638.10
2022-11-04T08:49:27.523Z,99631.82
2022-11-04T08:52:14.204Z,99630.33
2022-11-04T08:55:01.280Z,99629.38
2022-11-04T08:57:48.075Z,99632.31
2022-11-04T09:00:34.507Z,99631.27
2022-11-04T09:03:21.123Z,99636.25
2022-11-04T09:06:12.796Z,99631.73
2022-11-04T09:09:05.371Z,99625.19
2022-11-04T09:11:52.453Z,99625.33
2022-11-04T09:14:39.402Z,99626.80
2022-11-04T09:17:26.216Z,99624.20
2022-11-04T09:20:12.684Z,99617.61
2022-11-04T09:22:59.491Z,99614.10
2022-11-04T09:25:46.131Z,99613.23
2022-11-04T09:28:32.790Z,99612.81
2022-11-04T09:31:20.567Z,99606.79
2022-11-04T09:34:07.257Z,99598.76
2022-11-04T09:36:56.886Z,99589.61
2022-11-04T09:39:43.419Z,99592.23
2022-11-04T09:42:46.600Z,99599.94
2022-11-04T09:45:34.297Z,99603.17
2022-11-04T09:48:41.834Z,99587.73
2022-11-04T09:51:52.680Z,99580.87
2022-11-04T09:54:47.400Z,99573.21
2022-11-04T09:57:34.334Z,99566.63
2022-11-04T10:00:20.971Z,99561.43
2022-11-04T10:03:16.730Z,99563.77
2022-11-04T10:06:19.326Z,99562.77
2022-11-04T10:09:11.825Z,99562.56
2022-11-04T10:12:07.244Z,99556.64
2022-11-04T10:15:14.189Z,99549.92
2022-11-04T10:18:26.015Z,99537.36
2022-11-04T10:21:11.851Z,99537.28
2022-11-04T10:24:24.799Z,99544.15
2022-11-04T10:27:31.711Z,99549.38
2022-11-04T10:30:26.479Z,99545.10
2022-11-04T10:33:32.145Z,99545.81
2022-11-04T10:36:19.547Z,99549.17
2022-11-04T10:39:18.388Z,99551.86
2022-11-04T10:42:06.727Z,99551.73
2022-11-04T10:44:53.827Z,99557.80
2022-11-04T10:48:07.835Z,99553.05
2022-11-04T10:50:58.794Z,99550.64
2022-11-04T10:53:45.928Z,99551.86
2022-11-04T10:56:32.820Z,99549.78
2022-11-04T10:59:51.003Z,99545.10
2022-11-04T11:02:37.847Z,99537.30
2022-11-04T11:05:25.792Z,99532.67
2022-11-04T11:08:32.021Z,99531.42
2022-11-04T11:11:39.957Z,99529.89
2022-11-04T11:14:29.739Z,99529.94
2022-11-04T11:17:16.618Z,99530.29
2022-11-04T11:20:33.369Z,99525.39
2022-11-04T11:23:39.868Z,99520.73
2022-11-04T11:26:31.697Z,99512.55
2022-11-04T11:29:41.475Z,99513.95
2022-11-04T11:32:37.556Z,99507.14
2022-11-04T11:35:30.153Z,99496.92
2022-11-04T11:38:23.025Z,99498.36
2022-11-04T11:41:28.465Z,99489.35
2022-11-04T11:44:32.137Z,99492.02
2022-11-04T11:47:27.571Z,99493.41
2022-11-04T11:50:13.652Z,99488.36
2022-11-04T11:53:24.288Z,99483.67
2022-11-04T11:56:36.217Z,99476.34
2022-11-04T12:10:49.180Z,99460.84
2022-11-04T12:13:38.912Z,99456.51
2022-11-04T12:16:44.281Z,99457.69
2022-11-04T12:20:04.124Z,99446.13
2022-11-04T12:23:23.505Z,99441.83
2022-11-04T12:26:30.251Z,99440.12
2022-11-04T12:29:36.334Z,99438.50
2022-11-04T12:32:48.003Z,99435.87
2022-11-04T12:36:11.172Z,99432.88
2022-11-04T12:39:09.665Z,99428.67
2022-11-04T12:42:31.412Z,99432.28
2022-11-04T12:45:37.446Z,99426.54
2022-11-04T12:49:08.723Z,99428.36
2022-11-04T12:52:19.788Z,99427.75
2022-11-04T12:55:23.351Z,99428.99
2022-11-04T12:58:33.554Z,99430.70
2022-11-04T13:01:25.844Z,99429.39
2022-11-04T13:04:29.007Z,99424.39
2022-11-04T13:07:29.722Z,99415.89
2022-11-04T13:10:26.445Z,99413.67
2022-11-04T13:13:18.559Z,99412.89
2022-11-04T13:16:10.921Z,99415.36
2022-11-04T13:18:59.098Z,99409.99
2022-11-04T13:21:44.989Z,99412.69
2022-11-04T13:24:36.756Z,99413.45
2022-11-04T13:27:27.745Z,99406.67
2022-11-04T13:30:52.321Z,99406.94
2022-11-04T13:33:47.692Z,99404.76
2022-11-04T13:36:51.588Z,99405.30
2022-11-04T13:39:58.343Z,99401.27
2022-11-04T13:43:24.578Z,99401.27
2022-11-04T13:46:11.576Z,99410.12
2022-11-04T13:49:16.870Z,99413.41
2022-11-04T13:52:13.886Z,99425.52
2022-11-04T13:55:04.989Z,99428.52
2022-11-04T13:58:07.814Z,99431.13
2022-11-04T14:01:12.780Z,99443.05
2022-11-04T14:04:15.990Z,99446.21
2022-11-04T14:07:09.001Z,99443.98
2022-11-04T14:09:55.993Z,99449.20
2022-11-04T14:12:42.686Z,99450.91
2022-11-04T14:16:00.738Z,99449.37
2022-11-04T14:18:49.573Z,99448.65
2022-11-04T14:22:08.314Z,99449.20
2022-11-04T14:24:56.483Z,99441.70
2022-11-04T14:27:44.175Z,99442.13
2022-11-04T14:30:31.277Z,99439.31
2022-11-04T14:33:30.351Z,99436.61
2022-11-04T14:36:26.812Z,99433.38
2022-11-04T14:39:14.496Z,99431.09
2022-11-04T14:42:03.184Z,99426.50
2022-11-04T14:44:51.515Z,99429.91
2022-11-04T14:47:38.999Z,99432.04
2022-11-04T14:50:28.848Z,99432.45
2022-11-04T14:53:26.258Z,99436.91
2022-11-04T14:56:27.258Z,99441.55
2022-11-04T14:59:25.701Z,99445.45
2022-11-04T15:02:22.314Z,99451.00
2022-11-04T15:05:27.480Z,99450.85
2022-11-04T15:08:33.334Z,99454.39
2022-11-04T15:11:48.775Z,99451.83
2022-11-04T15:14:37.857Z,99450.38
2022-11-04T15:17:29.249Z,99446.94
2022-11-04T15:20:24.439Z,99448.30
2022-11-04T15:23:15.825Z,99444.50
2022-11-04T15:26:04.120Z,99449.16
2022-11-04T15:28:52.624Z,99453.30
2022-11-04T15:31:52.243Z,99457.73
2022-11-04T15:34:41.674Z,99459.33
2022-11-04T15:37:30.052Z,99456.27
2022-11-04T15:40:18.152Z,99462.58
2022-11-04T15:43:06.962Z,99464.57
2022-11-04T15:45:53.952Z,99468.30
2022-11-04T15:48:40.806Z,99466.08
2022-11-04T15:51:28.208Z,99469.98
2022-11-04T15:54:27.499Z,99467.41
2022-11-04T15:57:15.581Z,99469.28
2022-11-04T16:00:08.643Z,99471.65
2022-11-04T16:03:01.258Z,99472.49
2022-11-04T16:06:08.846Z,99472.55
2022-11-04T16:09:05.680Z,99471.91
2022-11-04T16:12:36.131Z,99473.36
2022-11-04T16:15:41.466Z,99475.85
2022-11-04T16:18:44.479Z,99478.52
2022-11-04T16:21:34.531Z,99472.06
2022-11-04T16:24:31.442Z,99472.45
2022-11-04T16:27:20.511Z,99473.21
2022-11-04T16:30:21.215Z,99472.80
2022-11-04T16:33:10.858Z,99480.27
2022-11-04T16:35:57.170Z,99476.40
2022-11-04T16:38:43.162Z,99475.48
2022-11-04T16:41:32.088Z,99471.88
2022-11-04T16:44:23.495Z,99476.55
2022-11-04T16:47:10.960Z,99482.56
2022-11-04T16:50:02.096Z,99475.80
2022-11-04T16:52:48.981Z,99475.95
2022-11-04T16:55:35.579Z,99473.36
2022-11-04T16:58:23.110Z,99467.11
2022-11-04T17:01:16.040Z,99470.14
2022-11-04T17:04:04.552Z,99470.05
2022-11-04T17:06:50.763Z,99471.60
2022-11-04T17:09:37.225Z,99468.59
2022-11-04T17:12:23.505Z,99470.72
2022-11-04T17:15:10.597Z,99471.30
2022-11-04T17:17:57.156Z,99467.19
2022-11-04T17:20:46.038Z,99468.10
2022-11-04T17:23:31.888Z,99463.15
2022-11-04T17:26:18.424Z,99462.86
2022-11-04T17:29:05.672Z,99458.31
2022-11-04T17:31:56.048Z,99458.34
2022-11-04T17:34:43.653Z,99455.79
2022-11-04T17:37:29.640Z,99465.10
2022-11-04T17:40:18.366Z,99453.83
2022-11-04T17:43:23.121Z,99455.25
2022-11-04T17:46:29.683Z,99458.12
2022-11-04T17:49:18.699Z,99454.16
2022-11-04T17:52:05.901Z,99459.44
2022-11-04T17:54:52.775Z,99455.95
2022-11-04T17:57:39.001Z,99454.14
2022-11-04T18:00:29.905Z,99454.73
2022-11-04T18:03:17.159Z,99450.73
2022-11-04T18:06:04.925Z,99451.23
2022-11-04T18:08:55.277Z,99452.88
2022-11-04T18:11:59.521Z,99447.88
2022-11-04T18:14:46.041Z,99445.33
2022-11-04T18:17:32.404Z,99442.56
2022-11-04T18:20:18.511Z,99438.41
2022-11-04T18:23:04.876Z,99434.50
2022-11-04T18:25:51.093Z,99426.71
2022-11-04T18:28:38.799Z,99424.95
2022-11-04T18:31:29.191Z,99431.30
2022-11-04T18:34:18.007Z,99428.15
2022-11-04T18:37:04.344Z,99430.84
2022-11-04T18:39:51.407Z,99432.02
2022-11-04T18:42:38.007Z,99433.03
2022-11-04T18:45:24.601Z,99437.59
2022-11-04T18:48:10.715Z,99437.59
2022-11-04T18:51:00.745Z,99442.36
2022-11-04T18:53:47.092Z,99436.92
2022-11-04T18:56:33.920Z,99434.35
2022-11-04T18:59:20.044Z,99431.66
2022-11-04T19:02:08.570Z,99434.79
2022-11-04T19:04:55.344Z,99431.77
2022-11-04T19:07:42.227Z,99435.36
2022-11-04T19:10:28.442Z,99436.42
2022-11-04T19:13:20.851Z,99433.27
2022-11-04T19:16:12.796Z,99439.13
2022-11-04T19:19:00.846Z,99441.27
2022-11-04T19:21:49.797Z,99438.27
2022-11-04T19:24:36.155Z,99445.34
2022-11-04T19:27:25.176Z,99443.13
2022-11-04T19:30:13.059Z,99449.71
2022-11-04T19:32:40.986Z,99448.60
2022-11-04T19:35:08.795Z,99448.83
2022-11-04T19:37:37.588Z,99449.35
2022-11-04T19:40:06.514Z,99459.39
2022-11-04T19:42:53.081Z,99466.44
2022-11-04T19:45:20.169Z,99466.41
2022-11-04T19:47:47.419Z,99462.35
2022-11-04T19:50:14.574Z,99455.24
2022-11-04T19:52:42.955Z,99458.86
2022-11-04T19:55:11.676Z,99456.66
2022-11-04T19:57:39.732Z,99457.71
2022-11-04T20:00:08.096Z,99452.58
2022-11-04T20:02:41.922Z,99448.95
2022-11-04T20:05:10.015Z,99447.77
2022-11-04T20:07:39.996Z,99445.06
2022-11-04T20:10:08.184Z,99447.58
2022-11-04T20:12:55.524Z,99449.31
2022-11-04T20:15:23.551Z,99449.98
2022-11-04T20:17:51.302Z,99448.73
2022-11-04T20:20:19.144Z,99447.44
2022-11-04T20:22:47.169Z,99452.47
2022-11-04T20:25:14.620Z,99453.22
2022-11-04T20:27:41.929Z,99453.66
2022-11-04T20:30:10.211Z,99454.60
2022-11-04T20:33:02.854Z,99454.60
2022-11-04T20:35:30.202Z,99454.50
2022-11-04T20:37:57.539Z,99455.75
2022-11-04T20:40:24.967Z,99457.88
2022-11-04T20:42:52.222Z,99458.86
2022-11-04T20:45:19.762Z,99462.27
2022-11-04T20:47:48.298Z,99456.04
2022-11-04T20:50:15.933Z,99458.59
2022-11-04T20:53:01.967Z,99460.05
2022-11-04T20:55:51.230Z,99465.46
2022-11-04T20:58:39.590Z,99462.89
2022-11-04T21:01:31.206Z,99466.59
2022-11-04T21:04:20.421Z,99466.27
2022-11-04T21:07:07.159Z,99464.56
2022-11-04T21:09:53.294Z,99456.77
2022-11-04T21:12:39.599Z,99449.41
2022-11-04T21:15:40.961Z,99449.11
2022-11-04T21:18:28.131Z,99447.73
2022-11-04T21:20:57.023Z,99448.39
2022-11-04T21:23:25.434Z,99447.05
2022-11-04T21:25:56.614Z,99447.73
2022-11-04T21:28:42.624Z,99450.29
2022-11-04T21:31:30.830Z,99455.45
2022-11-04T21:34:17.457Z,99451.68
2022-11-04T21:36:45.898Z,99449.84
2022-11-04T21:39:13.386Z,99447.66
2022-11-04T21:41:41.332Z,99442.16
2022-11-04T21:44:12.925Z,99446.95
2022-11-04T21:46:40.678Z,99456.90
2022-11-04T21:49:09.268Z,99449.15
2022-11-04T21:51:36.884Z,99444.84
2022-11-04T21:54:07.464Z,99438.23
2022-11-04T21:56:35.925Z,99435.23
2022-11-04T21:59:04.394Z,99432.44
2022-11-04T22:01:33.039Z,99432.66
2022-11-04T22:04:02.131Z,99433.53
2022-11-04T22:06:34.680Z,99436.70
2022-11-04T22:09:05.632Z,99440.73
2022-11-04T22:11:36.787Z,99439.09
2022-11-04T22:14:08.611Z,99444.60
2022-11-04T22:16:39.082Z,99446.73
2022-11-04T22:19:10.559Z,99452.06
2022-11-04T22:21:43.939Z,99447.45
2022-11-04T22:24:17.308Z,99446.02
2022-11-04T22:26:44.724Z,99441.42
2022-11-04T22:29:12.313Z,99437.83
2022-11-04T22:31:43.444Z,99434.56
2022-11-04T22:34:11.089Z,99434.56
2022-11-04T22:36:38.727Z,99435.96
2022-11-04T22:39:07.548Z,99439.63
2022-11-04T22:41:37.847Z,99434.34
2022-11-04T22:44:05.069Z,99431.89
2022-11-04T22:46:35.602Z,99439.13
2022-11-04T22:49:02.928Z,99439.45
2022-11-04T22:51:31.817Z,99441.46
2022-11-04T22:54:04.573Z,99435.96
2022-11-04T22:56:35.460Z,99430.44
2022-11-04T22:59:02.942Z,99434.98
2022-11-04T23:01:31.964Z,99433.25
2022-11-04T23:03:59.813Z,99431.59
2022-11-04T23:06:27.199Z,99430.23
2022-11-04T23:08:59.753Z,99429.14
2022-11-04T23:11:48.159Z,99426.88
2022-11-04T23:14:48.018Z,99424.86
2022-11-04T23:17:40.656Z,99419.98
2022-11-04T23:20:13.099Z,99424.38
2022-11-04T23:22:59.714Z,99426.48
2022-11-04T23:25:28.911Z,99435.63
2022-11-04T23:28:15.125Z,99434.35
2022-11-04T23:30:46.478Z,99436.63
2022-11-04T23:33:15.725Z,99431.63
2022-11-04T23:36:05.161Z,99429.29
2022-11-04T23:38:35.774Z,99433.88
2022-11-04T23:41:25.554Z,99434.48
2022-11-04T23:43:54.014Z,99432.73
2022-11-04T23:46:43.283Z,99429.70
2022-11-04T23:49:31.844Z,99428.87
2022-11-04T23:52:32.535Z,99425.11
2022-11-04T23:55:19.789Z,99429.88
2022-11-04T23:58:06.723Z,99429.80
